createdAt,value
2019-04-23T00:01:47.211Z,50.44
2019-04-23T00:04:10.121Z,50.23
2019-04-23T00:06:45.635Z,50.42
2019-04-23T00:09:19.183Z,50.18
2019-04-23T00:14:21.083Z,50.00
2019-04-23T00:16:44.065Z,50.15
2019-04-23T00:19:17.051Z,49.96
2019-04-23T00:22:00.375Z,50.00
2019-04-23T00:25:12.164Z,50.22
2019-04-23T00:29:53.689Z,50.04
2019-04-23T00:32:23.429Z,50.09
2019-04-23T00:34:55.864Z,50.01
2019-04-23T00:37:25.775Z,50.03
2019-04-23T00:39:52.517Z,50.04
2019-04-23T00:44:54.320Z,50.04
2019-04-23T00:47:27.601Z,50.06
2019-04-23T00:50:03.606Z,50.05
2019-04-23T00:52:26.388Z,49.98
2019-04-23T00:55:07.722Z,49.93
2019-04-23T00:57:29.052Z,49.98
2019-04-23T01:00:03.464Z,50.17
2019-04-23T01:02:33.277Z,50.04
2019-04-23T01:05:04.802Z,50.12
2019-04-23T01:07:33.588Z,50.14
2019-04-23T01:10:08.299Z,50.16
2019-04-23T01:15:15.721Z,50.06
2019-04-23T01:20:14.260Z,50.13
2019-04-23T01:22:29.621Z,50.05
2019-04-23T01:25:13.794Z,50.15
2019-04-23T01:28:04.393Z,50.02
2019-04-23T01:30:38.840Z,50.17
2019-04-23T01:33:03.345Z,50.08
2019-04-23T01:35:36.556Z,50.14
2019-04-23T01:38:04.829Z,49.96
2019-04-23T01:40:39.438Z,50.18
2019-04-23T01:43:07.946Z,50.18
2019-04-23T01:45:57.431Z,50.07
2019-04-23T01:48:11.108Z,50.12
2019-04-23T01:50:50.194Z,50.28
2019-04-23T01:55:46.877Z,50.18
2019-04-23T01:58:34.990Z,50.24
2019-04-23T02:00:47.565Z,50.38
2019-04-23T02:03:21.184Z,50.28
2019-04-23T02:05:48.084Z,50.46
2019-04-23T02:08:22.787Z,50.50
2019-04-23T02:13:22.355Z,50.68
2019-04-23T02:15:53.810Z,50.65
2019-04-23T02:18:20.572Z,50.64
2019-04-23T02:20:59.544Z,50.67
2019-04-23T02:23:53.726Z,50.88
2019-04-23T02:26:33.319Z,50.92
2019-04-23T02:29:06.433Z,50.91
2019-04-23T02:34:12.161Z,51.07
2019-04-23T02:36:39.876Z,51.24
2019-04-23T02:46:31.712Z,51.78
2019-04-23T02:49:38.198Z,51.80
2019-04-23T02:56:47.105Z,51.88
2019-04-23T02:59:18.958Z,51.89
2019-04-23T03:01:40.039Z,51.95
2019-04-23T03:04:17.446Z,52.11
2019-04-23T03:06:52.254Z,52.16
2019-04-23T03:09:20.094Z,52.27
2019-04-23T03:11:52.261Z,52.34
2019-04-23T03:14:18.478Z,52.35
2019-04-23T03:22:30.534Z,52.51
2019-04-23T03:25:23.276Z,52.52
2019-04-23T03:27:44.047Z,52.72
2019-04-23T03:34:42.585Z,52.74
2019-04-23T03:37:58.169Z,52.89
2019-04-23T03:40:32.420Z,53.04
2019-04-23T03:43:06.430Z,53.13
2019-04-23T03:45:37.030Z,53.18
2019-04-23T03:52:46.528Z,53.41
2019-04-23T03:57:52.343Z,53.52
2019-04-23T04:00:35.180Z,53.54
2019-04-23T04:03:27.901Z,53.61
2019-04-23T04:05:49.312Z,53.65
2019-04-23T04:10:35.293Z,53.73
2019-04-23T04:12:59.195Z,53.78
2019-04-23T04:20:52.363Z,53.95
2019-04-23T04:23:22.222Z,53.94
2019-04-23T04:28:12.955Z,53.94
2019-04-23T04:30:43.517Z,53.99
2019-04-23T04:33:41.340Z,53.89
2019-04-23T04:35:58.369Z,53.91
2019-04-23T04:38:36.383Z,53.86
2019-04-23T04:43:32.247Z,53.86
2019-04-23T04:53:47.417Z,53.78
2019-04-23T04:56:07.786Z,53.59
2019-04-23T04:58:32.388Z,53.57
2019-04-23T05:01:10.059Z,53.53
2019-04-23T05:03:28.533Z,53.54
2019-04-23T05:06:18.612Z,53.37
2019-04-23T05:11:10.933Z,53.22
2019-04-23T05:16:10.082Z,53.07
2019-04-23T05:18:38.174Z,53.00
2019-04-23T05:23:43.009Z,52.78
2019-04-23T05:26:21.017Z,52.78
2019-04-23T05:31:19.013Z,52.45
2019-04-23T05:33:52.214Z,52.10
2019-04-23T05:41:38.466Z,51.94
2019-04-23T05:43:57.236Z,51.74
2019-04-23T05:46:26.417Z,51.38
2019-04-23T05:51:27.955Z,51.41
2019-04-23T05:56:29.106Z,51.14
2019-04-23T05:58:59.605Z,50.98
2019-04-23T06:06:54.159Z,50.66
2019-04-23T06:09:07.803Z,50.46
2019-04-23T06:11:47.056Z,50.01
2019-04-23T06:14:24.989Z,49.89
2019-04-23T06:19:11.185Z,49.88
2019-04-23T06:21:47.867Z,49.47
2019-04-23T06:24:16.991Z,49.55
2019-04-23T06:26:52.753Z,49.62
2019-04-23T06:29:15.484Z,49.49
2019-04-23T06:36:37.815Z,49.19
2019-04-23T06:39:13.330Z,48.90
2019-04-23T06:41:44.841Z,48.60
2019-04-23T06:44:28.438Z,48.74
2019-04-23T06:47:02.107Z,48.60
2019-04-23T06:49:26.447Z,48.53
2019-04-23T06:52:08.442Z,48.14
2019-04-23T06:54:24.465Z,48.12
2019-04-23T06:59:29.328Z,47.56
2019-04-23T07:04:39.366Z,47.44
2019-04-23T07:07:25.664Z,47.52
2019-04-23T07:09:18.692Z,48.01
2019-04-23T07:11:54.048Z,47.13
2019-04-23T07:14:35.913Z,46.77
2019-04-23T07:17:04.273Z,47.14
2019-04-23T07:19:39.241Z,46.81
2019-04-23T07:22:12.908Z,46.34
2019-04-23T07:24:34.557Z,46.35
2019-04-23T07:27:01.325Z,46.50
2019-04-23T07:29:39.189Z,46.35
2019-04-23T07:32:05.384Z,46.18
2019-04-23T07:34:39.317Z,46.14
2019-04-23T07:37:12.601Z,45.95
2019-04-23T07:40:11.325Z,45.35
2019-04-23T07:48:11.269Z,45.73
2019-04-23T07:58:20.821Z,45.17
2019-04-23T08:05:43.983Z,44.89
2019-04-23T08:08:13.402Z,44.96
2019-04-23T08:11:23.425Z,45.10
2019-04-23T08:13:41.654Z,44.70
2019-04-23T08:16:19.694Z,44.84
2019-04-23T08:18:45.369Z,43.12
2019-04-23T08:21:10.599Z,43.08
2019-04-23T08:23:55.269Z,43.78
2019-04-23T08:26:45.112Z,42.57
2019-04-23T08:29:17.133Z,42.95
2019-04-23T08:31:46.704Z,43.72
2019-04-23T08:39:21.545Z,42.84
2019-04-23T08:41:59.661Z,41.81
2019-04-23T08:44:41.495Z,41.92
2019-04-23T08:47:09.426Z,41.18
2019-04-23T08:49:43.251Z,40.71
2019-04-23T08:52:11.815Z,40.74
2019-04-23T08:54:48.397Z,40.74
2019-04-23T08:59:45.171Z,40.26
2019-04-23T09:05:02.545Z,41.04
2019-04-23T09:07:16.923Z,40.31
2019-04-23T09:09:53.677Z,40.22
2019-04-23T09:12:21.031Z,40.54
2019-04-23T09:14:46.563Z,40.74
2019-04-23T09:17:37.659Z,40.17
2019-04-23T09:20:09.862Z,39.92
2019-04-23T09:22:25.109Z,38.95
2019-04-23T09:27:27.529Z,39.17
2019-04-23T09:30:00.048Z,38.66
2019-04-23T09:32:26.591Z,39.55
2019-04-23T09:35:20.247Z,38.81
2019-04-23T09:37:54.110Z,37.53
2019-04-23T09:43:31.250Z,37.39
2019-04-23T09:46:32.067Z,37.04
2019-04-23T09:49:09.791Z,36.74
2019-04-23T09:51:38.665Z,37.17
2019-04-23T09:54:02.945Z,37.19
2019-04-23T09:56:39.329Z,36.96
2019-04-23T09:59:08.922Z,38.15
2019-04-23T10:03:56.112Z,36.76
2019-04-23T10:06:18.334Z,36.83
2019-04-23T10:08:47.572Z,36.81
2019-04-23T10:11:13.610Z,36.45
2019-04-23T10:13:42.963Z,35.97
2019-04-23T10:16:15.630Z,36.01
2019-04-23T10:18:42.923Z,36.47
2019-04-23T10:21:13.101Z,36.89
2019-04-23T10:23:43.299Z,36.30
2019-04-23T10:26:12.396Z,35.80
2019-04-23T10:29:09.956Z,35.39
2019-04-23T10:31:40.028Z,35.77
2019-04-23T10:34:10.341Z,35.04
2019-04-23T10:36:40.663Z,34.69
2019-04-23T10:39:17.579Z,35.15
2019-04-23T10:41:45.731Z,33.90
2019-04-23T10:44:32.997Z,34.56
2019-04-23T10:47:45.352Z,34.42
2019-04-23T10:58:25.009Z,33.55
2019-04-23T11:01:01.662Z,32.95
2019-04-23T11:03:41.984Z,33.60
2019-04-23T11:08:30.984Z,33.01
2019-04-23T11:11:00.163Z,33.31
2019-04-23T11:13:50.208Z,33.43
2019-04-23T11:16:45.927Z,33.07
2019-04-23T11:21:23.752Z,32.26
2019-04-23T11:23:51.799Z,33.56
2019-04-23T11:26:31.854Z,33.35
2019-04-23T11:28:51.888Z,32.78
2019-04-23T11:31:31.568Z,32.98
2019-04-23T11:34:01.588Z,33.08
2019-04-23T11:39:00.642Z,31.92
2019-04-23T11:41:32.412Z,31.96
2019-04-23T11:51:09.303Z,32.80
2019-04-23T11:51:09.304Z,32.19
2019-04-23T11:51:45.910Z,32.40
2019-04-23T11:54:07.065Z,32.20
2019-04-23T11:59:07.539Z,32.28
2019-04-23T12:02:07.386Z,32.32
2019-04-23T12:05:03.756Z,31.69
2019-04-23T12:07:32.605Z,31.76
2019-04-23T12:12:33.334Z,31.55
2019-04-23T12:15:15.343Z,31.84
2019-04-23T12:17:49.053Z,31.66
2019-04-23T12:22:48.951Z,32.20
2019-04-23T12:27:59.363Z,31.99
2019-04-23T12:30:27.392Z,31.66
2019-04-23T12:32:53.685Z,32.16
2019-04-23T12:37:56.282Z,31.40
2019-04-23T12:40:25.049Z,31.12
2019-04-23T12:45:30.162Z,31.98
2019-04-23T12:50:45.048Z,31.91
2019-04-23T12:53:05.732Z,32.11
2019-04-23T12:58:03.847Z,32.78
2019-04-23T13:03:25.971Z,33.59
2019-04-23T13:05:33.944Z,32.23
2019-04-23T13:08:24.574Z,32.11
2019-04-23T13:10:43.638Z,32.29
2019-04-23T13:15:40.882Z,32.91
2019-04-23T13:20:38.461Z,33.63
2019-04-23T13:23:18.322Z,33.76
2019-04-23T13:28:29.505Z,33.86
2019-04-23T13:30:59.542Z,33.76
2019-04-23T13:41:08.800Z,33.82
2019-04-23T13:43:40.438Z,34.28
2019-04-23T13:48:27.990Z,34.32
2019-04-23T13:51:06.725Z,34.80
2019-04-23T13:56:11.510Z,34.70
2019-04-23T14:11:21.638Z,34.88
2019-04-23T14:16:29.836Z,34.91
2019-04-23T14:21:25.261Z,35.27
2019-04-23T14:24:02.923Z,35.47
2019-04-23T14:28:44.557Z,35.05
2019-04-23T14:34:01.311Z,35.40
2019-04-23T14:36:25.315Z,35.78
2019-04-23T14:39:07.274Z,35.88
2019-04-23T14:42:16.669Z,35.86
2019-04-23T14:44:11.056Z,36.09
2019-04-23T14:49:30.852Z,36.49
2019-04-23T14:51:47.814Z,36.70
2019-04-23T14:54:15.808Z,36.66
2019-04-23T14:56:44.905Z,37.10
2019-04-23T14:59:10.452Z,36.99
2019-04-23T15:04:10.919Z,37.51
2019-04-23T15:06:58.293Z,37.72
2019-04-23T15:09:27.616Z,37.79
2019-04-23T15:11:52.750Z,37.88
2019-04-23T15:14:17.725Z,37.83
2019-04-23T15:16:54.441Z,38.09
2019-04-23T15:19:40.423Z,37.99
2019-04-23T15:22:12.501Z,38.17
2019-04-23T15:29:24.551Z,38.16
2019-04-23T15:32:08.989Z,37.86
2019-04-23T15:34:57.526Z,37.96
2019-04-23T15:44:41.933Z,38.78
2019-04-23T15:47:19.687Z,38.84
2019-04-23T15:49:47.390Z,38.74
2019-04-23T15:52:39.330Z,38.72
2019-04-23T15:54:50.540Z,39.25
2019-04-23T15:57:28.445Z,39.17
2019-04-23T15:59:47.864Z,39.13
2019-04-23T16:01:51.202Z,39.65
2019-04-23T16:04:20.817Z,39.59
2019-04-23T16:06:51.915Z,39.72
2019-04-23T16:09:57.371Z,39.84
2019-04-23T16:12:20.458Z,40.13
2019-04-23T16:15:03.655Z,40.16
2019-04-23T16:22:30.410Z,40.49
2019-04-23T16:25:06.852Z,40.81
2019-04-23T16:27:28.306Z,40.79
2019-04-23T16:35:50.671Z,41.08
2019-04-23T16:38:26.704Z,41.15
2019-04-23T16:41:00.759Z,40.99
2019-04-23T16:43:13.265Z,41.27
2019-04-23T16:48:35.058Z,41.50
2019-04-23T16:53:21.204Z,41.66
2019-04-23T16:56:01.551Z,41.68
2019-04-23T16:58:29.457Z,41.55
2019-04-23T17:01:05.899Z,41.87
2019-04-23T17:03:26.245Z,41.84
2019-04-23T17:05:59.457Z,41.79
2019-04-23T17:11:00.126Z,42.01
2019-04-23T17:13:34.660Z,42.25
2019-04-23T17:18:31.882Z,42.30
2019-04-23T17:20:58.326Z,42.40
2019-04-23T17:23:39.957Z,42.46
2019-04-23T17:26:03.425Z,42.58
2019-04-23T17:28:31.054Z,42.70
2019-04-23T17:31:28.169Z,42.79
2019-04-23T17:33:45.125Z,42.80
2019-04-23T17:39:04.000Z,43.12
2019-04-23T17:41:57.451Z,43.46
2019-04-23T17:44:23.625Z,43.35
2019-04-23T17:46:57.963Z,43.43
2019-04-23T17:49:15.301Z,43.60
2019-04-23T17:51:53.811Z,43.69
2019-04-23T17:54:23.257Z,43.79
2019-04-23T17:57:05.509Z,43.90
2019-04-23T17:59:27.765Z,44.05
2019-04-23T18:02:24.269Z,44.24
2019-04-23T18:04:29.658Z,44.40
2019-04-23T18:14:16.497Z,44.56
2019-04-23T18:16:57.200Z,44.01
2019-04-23T18:19:22.854Z,43.50
2019-04-23T18:27:24.735Z,43.79
2019-04-23T18:30:15.237Z,43.80
2019-04-23T18:33:01.337Z,43.98
2019-04-23T18:35:20.100Z,44.08
2019-04-23T18:37:44.292Z,44.10
2019-04-23T18:40:13.052Z,44.27
2019-04-23T18:42:43.696Z,44.50
2019-04-23T18:45:22.805Z,44.52
2019-04-23T18:50:32.779Z,44.83
2019-04-23T18:55:35.979Z,45.29
2019-04-23T18:58:03.396Z,45.51
2019-04-23T19:00:41.438Z,45.75
2019-04-23T19:03:11.544Z,46.09
2019-04-23T19:05:55.029Z,46.31
2019-04-23T19:08:42.572Z,46.46
2019-04-23T19:11:09.138Z,46.59
2019-04-23T19:13:40.338Z,46.85
2019-04-23T19:16:08.087Z,47.11
2019-04-23T19:18:40.381Z,47.33
2019-04-23T19:21:13.863Z,47.58
2019-04-23T19:23:47.269Z,47.64
2019-04-23T19:26:15.794Z,47.85
2019-04-23T19:28:47.639Z,48.11
2019-04-23T19:31:47.586Z,48.14
2019-04-23T19:34:21.377Z,48.38
2019-04-23T19:36:56.352Z,48.40
2019-04-23T19:39:11.915Z,48.59
2019-04-23T19:42:02.123Z,48.96
2019-04-23T19:44:08.381Z,48.98
2019-04-23T19:46:54.856Z,48.93
2019-04-23T19:51:48.161Z,49.35
2019-04-23T19:56:49.782Z,49.76
2019-04-23T19:59:14.104Z,49.92
2019-04-23T20:01:53.345Z,49.97
2019-04-23T20:04:15.415Z,50.16
2019-04-23T20:07:05.472Z,50.32
2019-04-23T20:09:37.415Z,50.39
2019-04-23T20:12:07.313Z,50.39
2019-04-23T20:14:21.472Z,50.74
2019-04-23T20:19:34.904Z,50.89
2019-04-23T20:21:59.221Z,51.07
2019-04-23T20:24:28.614Z,51.20
2019-04-23T20:26:59.384Z,51.40
2019-04-23T20:35:08.524Z,52.10
2019-04-23T20:40:04.138Z,52.39
2019-04-23T20:42:38.994Z,52.48
2019-04-23T20:45:22.607Z,52.36
2019-04-23T20:47:45.595Z,52.28
2019-04-23T20:50:00.076Z,52.60
2019-04-23T20:52:44.817Z,52.85
2019-04-23T20:57:54.964Z,53.24
2019-04-23T21:00:42.981Z,53.32
2019-04-23T21:05:36.035Z,53.58
2019-04-23T21:08:41.011Z,53.77
2019-04-23T21:20:48.850Z,53.98
2019-04-23T21:23:21.639Z,54.20
2019-04-23T21:25:49.036Z,54.29
2019-04-23T21:28:27.154Z,54.38
2019-04-23T21:31:16.428Z,54.47
2019-04-23T21:33:55.378Z,54.60
2019-04-23T21:44:21.018Z,55.44
2019-04-23T21:46:58.492Z,55.70
2019-04-23T21:51:57.584Z,55.95
2019-04-23T21:54:35.337Z,56.09
2019-04-23T21:56:55.328Z,56.13
2019-04-23T21:59:28.627Z,56.27
2019-04-23T22:01:58.835Z,56.49
2019-04-23T22:04:35.691Z,56.50
2019-04-23T22:06:59.088Z,56.54
2019-04-23T22:09:34.642Z,56.78
2019-04-23T22:14:40.549Z,57.00
2019-04-23T22:17:09.478Z,57.26
2019-04-23T22:19:38.355Z,57.50
2019-04-23T22:22:02.589Z,57.66
2019-04-23T22:24:43.033Z,57.64
2019-04-23T22:27:10.114Z,57.90
2019-04-23T22:29:39.724Z,57.99
2019-04-23T22:32:16.679Z,58.08
2019-04-23T22:34:48.288Z,58.06
2019-04-23T22:37:14.034Z,58.28
2019-04-23T22:39:45.743Z,58.27
2019-04-23T22:42:34.913Z,58.35
2019-04-23T22:44:59.092Z,58.33
2019-04-23T22:47:08.821Z,58.49
2019-04-23T22:52:21.688Z,58.95
2019-04-23T22:57:32.777Z,59.61
2019-04-23T23:00:09.162Z,59.53
2019-04-23T23:02:44.388Z,59.83
2019-04-23T23:05:14.373Z,60.10
2019-04-23T23:07:48.849Z,60.22
2019-04-23T23:17:54.633Z,60.83
2019-04-23T23:20:21.116Z,60.90
2019-04-23T23:23:05.643Z,61.15
2019-04-23T23:25:23.838Z,61.11
2019-04-23T23:27:55.231Z,61.08
2019-04-23T23:32:52.389Z,61.22
2019-04-23T23:35:31.213Z,61.26
2019-04-23T23:37:52.957Z,61.38
2019-04-23T23:40:20.439Z,61.28
2019-04-23T23:43:03.693Z,61.24
2019-04-23T23:45:30.500Z,61.38
2019-04-23T23:50:28.072Z,61.46
2019-04-23T23:53:05.247Z,61.66
2019-04-23T23:55:18.503Z,61.72
2019-04-23T23:57:59.749Z,61.71
